sensor_id;sensor_type;location;lat;lon;timestamp;P1;durP1;ratioP1;P2;durP2;ratioP2
64684;SDS011;51109;47.414;18.954;2024-02-26T00:01:36;40.67;;;25.23;;
64684;SDS011;51109;47.414;18.954;2024-02-26T00:04:02;39.42;;;24.92;;
64684;SDS011;51109;47.414;18.954;2024-02-26T00:06:28;40.75;;;25.08;;
64684;SDS011;51109;47.414;18.954;2024-02-26T00:08:55;38.97;;;24.02;;
64684;SDS011;51109;47.414;18.954;2024-02-26T00:11:21;39.28;;;23.40;;
64684;SDS011;51109;47.414;18.954;2024-02-26T00:13:46;39.60;;;23.58;;
64684;SDS011;51109;47.414;18.954;2024-02-26T00:16:12;40.25;;;24.60;;
64684;SDS011;51109;47.414;18.954;2024-02-26T00:18:38;42.88;;;25.75;;
64684;SDS011;51109;47.414;18.954;2024-02-26T00:21:04;41.17;;;25.45;;
64684;SDS011;51109;47.414;18.954;2024-02-26T00:23:30;41.08;;;24.55;;
64684;SDS011;51109;47.414;18.954;2024-02-26T00:25:55;40.92;;;25.65;;
64684;SDS011;51109;47.414;18.954;2024-02-26T00:28:21;45.60;;;24.85;;
64684;SDS011;51109;47.414;18.954;2024-02-26T00:30:47;40.00;;;24.77;;
64684;SDS011;51109;47.414;18.954;2024-02-26T00:33:16;38.83;;;23.15;;
64684;SDS011;51109;47.414;18.954;2024-02-26T00:35:42;42.50;;;25.17;;
64684;SDS011;51109;47.414;18.954;2024-02-26T00:38:08;43.70;;;23.23;;
64684;SDS011;51109;47.414;18.954;2024-02-26T00:40:34;40.72;;;23.70;;
64684;SDS011;51109;47.414;18.954;2024-02-26T00:43:00;39.22;;;23.88;;
64684;SDS011;51109;47.414;18.954;2024-02-26T00:45:25;40.63;;;23.52;;
64684;SDS011;51109;47.414;18.954;2024-02-26T00:47:51;35.63;;;22.35;;
64684;SDS011;51109;47.414;18.954;2024-02-26T00:50:17;38.78;;;23.60;;
64684;SDS011;51109;47.414;18.954;2024-02-26T00:52:43;36.42;;;22.25;;
64684;SDS011;51109;47.414;18.954;2024-02-26T00:55:08;39.83;;;23.02;;
64684;SDS011;51109;47.414;18.954;2024-02-26T00:57:34;41.83;;;23.25;;
64684;SDS011;51109;47.414;18.954;2024-02-26T01:00:00;39.72;;;24.10;;
64684;SDS011;51109;47.414;18.954;2024-02-26T01:02:26;40.45;;;23.42;;
64684;SDS011;51109;47.414;18.954;2024-02-26T01:04:52;47.70;;;25.05;;
64684;SDS011;51109;47.414;18.954;2024-02-26T01:07:18;42.78;;;25.17;;
64684;SDS011;51109;47.414;18.954;2024-02-26T01:09:44;39.20;;;22.58;;
64684;SDS011;51109;47.414;18.954;2024-02-26T01:12:10;43.17;;;23.27;;
64684;SDS011;51109;47.414;18.954;2024-02-26T01:14:36;46.90;;;23.83;;
64684;SDS011;51109;47.414;18.954;2024-02-26T01:17:01;38.88;;;22.30;;
64684;SDS011;51109;47.414;18.954;2024-02-26T01:19:28;35.08;;;21.98;;
64684;SDS011;51109;47.414;18.954;2024-02-26T01:21:53;36.10;;;21.27;;
64684;SDS011;51109;47.414;18.954;2024-02-26T01:24:19;38.97;;;20.38;;
64684;SDS011;51109;47.414;18.954;2024-02-26T01:26:45;35.08;;;20.17;;
64684;SDS011;51109;47.414;18.954;2024-02-26T01:29:11;37.92;;;20.88;;
64684;SDS011;51109;47.414;18.954;2024-02-26T01:31:37;37.53;;;20.42;;
64684;SDS011;51109;47.414;18.954;2024-02-26T01:34:03;39.63;;;19.98;;
64684;SDS011;51109;47.414;18.954;2024-02-26T01:36:29;37.40;;;20.98;;
64684;SDS011;51109;47.414;18.954;2024-02-26T01:38:54;35.63;;;19.23;;
64684;SDS011;51109;47.414;18.954;2024-02-26T01:41:20;31.05;;;19.77;;
64684;SDS011;51109;47.414;18.954;2024-02-26T01:43:46;35.13;;;20.10;;
64684;SDS011;51109;47.414;18.954;2024-02-26T01:46:13;35.70;;;18.95;;
64684;SDS011;51109;47.414;18.954;2024-02-26T01:48:42;31.15;;;17.98;;
64684;SDS011;51109;47.414;18.954;2024-02-26T01:51:10;33.03;;;19.08;;
64684;SDS011;51109;47.414;18.954;2024-02-26T01:53:37;37.45;;;18.33;;
64684;SDS011;51109;47.414;18.954;2024-02-26T01:56:03;33.35;;;18.63;;
64684;SDS011;51109;47.414;18.954;2024-02-26T01:58:29;36.17;;;20.23;;
64684;SDS011;51109;47.414;18.954;2024-02-26T02:00:56;38.25;;;20.27;;
64684;SDS011;51109;47.414;18.954;2024-02-26T02:03:23;36.90;;;19.85;;
64684;SDS011;51109;47.414;18.954;2024-02-26T02:05:49;35.40;;;19.65;;
64684;SDS011;51109;47.414;18.954;2024-02-26T02:08:15;32.92;;;18.98;;
64684;SDS011;51109;47.414;18.954;2024-02-26T02:10:44;33.80;;;18.33;;
64684;SDS011;51109;47.414;18.954;2024-02-26T02:13:13;34.28;;;19.08;;
64684;SDS011;51109;47.414;18.954;2024-02-26T02:15:39;41.85;;;18.70;;
64684;SDS011;51109;47.414;18.954;2024-02-26T02:18:05;31.80;;;18.30;;
64684;SDS011;51109;47.414;18.954;2024-02-26T02:20:32;35.70;;;19.35;;
64684;SDS011;51109;47.414;18.954;2024-02-26T02:22:59;32.47;;;17.52;;
64684;SDS011;51109;47.414;18.954;2024-02-26T02:25:25;34.53;;;18.88;;
64684;SDS011;51109;47.414;18.954;2024-02-26T02:27:51;33.63;;;20.20;;
64684;SDS011;51109;47.414;18.954;2024-02-26T02:30:20;34.47;;;17.50;;
64684;SDS011;51109;47.414;18.954;2024-02-26T02:32:48;38.83;;;18.55;;
64684;SDS011;51109;47.414;18.954;2024-02-26T02:35:14;33.50;;;18.45;;
64684;SDS011;51109;47.414;18.954;2024-02-26T02:37:40;35.45;;;19.02;;
64684;SDS011;51109;47.414;18.954;2024-02-26T02:40:06;33.00;;;18.98;;
64684;SDS011;51109;47.414;18.954;2024-02-26T02:42:32;29.02;;;17.13;;
64684;SDS011;51109;47.414;18.954;2024-02-26T02:44:58;30.08;;;17.95;;
64684;SDS011;51109;47.414;18.954;2024-02-26T02:47:24;37.55;;;19.95;;
64684;SDS011;51109;47.414;18.954;2024-02-26T02:49:49;39.30;;;20.20;;
64684;SDS011;51109;47.414;18.954;2024-02-26T02:52:15;37.65;;;19.70;;
64684;SDS011;51109;47.414;18.954;2024-02-26T02:54:41;37.45;;;19.27;;
64684;SDS011;51109;47.414;18.954;2024-02-26T02:57:10;30.25;;;18.95;;
64684;SDS011;51109;47.414;18.954;2024-02-26T02:59:36;36.40;;;20.13;;
64684;SDS011;51109;47.414;18.954;2024-02-26T03:02:02;34.25;;;20.50;;
64684;SDS011;51109;47.414;18.954;2024-02-26T03:04:28;40.85;;;22.17;;
64684;SDS011;51109;47.414;18.954;2024-02-26T03:06:54;45.15;;;24.55;;
64684;SDS011;51109;47.414;18.954;2024-02-26T03:09:20;48.83;;;23.77;;
64684;SDS011;51109;47.414;18.954;2024-02-26T03:11:46;45.97;;;24.98;;
64684;SDS011;51109;47.414;18.954;2024-02-26T03:14:12;40.95;;;23.90;;
64684;SDS011;51109;47.414;18.954;2024-02-26T03:16:38;45.67;;;23.80;;
64684;SDS011;51109;47.414;18.954;2024-02-26T03:19:03;43.97;;;23.55;;
64684;SDS011;51109;47.414;18.954;2024-02-26T03:21:29;40.90;;;22.42;;
64684;SDS011;51109;47.414;18.954;2024-02-26T03:23:55;37.60;;;21.20;;
64684;SDS011;51109;47.414;18.954;2024-02-26T03:26:22;40.10;;;21.42;;
64684;SDS011;51109;47.414;18.954;2024-02-26T03:28:48;34.47;;;21.73;;
64684;SDS011;51109;47.414;18.954;2024-02-26T03:31:14;43.38;;;22.77;;
64684;SDS011;51109;47.414;18.954;2024-02-26T03:33:40;43.90;;;24.05;;
64684;SDS011;51109;47.414;18.954;2024-02-26T03:36:06;42.00;;;24.35;;
64684;SDS011;51109;47.414;18.954;2024-02-26T03:38:32;39.45;;;23.92;;
64684;SDS011;51109;47.414;18.954;2024-02-26T03:40:58;44.22;;;24.17;;
64684;SDS011;51109;47.414;18.954;2024-02-26T03:43:24;41.08;;;26.00;;
64684;SDS011;51109;47.414;18.954;2024-02-26T03:45:50;43.25;;;26.00;;
64684;SDS011;51109;47.414;18.954;2024-02-26T03:48:16;45.92;;;25.60;;
64684;SDS011;51109;47.414;18.954;2024-02-26T03:50:41;44.03;;;25.23;;
64684;SDS011;51109;47.414;18.954;2024-02-26T03:53:07;45.85;;;25.30;;
64684;SDS011;51109;47.414;18.954;2024-02-26T03:55:34;48.03;;;26.38;;
64684;SDS011;51109;47.414;18.954;2024-02-26T03:58:00;48.13;;;25.95;;
64684;SDS011;51109;47.414;18.954;2024-02-26T04:00:26;46.55;;;27.50;;
64684;SDS011;51109;47.414;18.954;2024-02-26T04:02:54;42.58;;;25.60;;
64684;SDS011;51109;47.414;18.954;2024-02-26T04:05:19;43.40;;;26.65;;
64684;SDS011;51109;47.414;18.954;2024-02-26T04:07:45;44.47;;;26.45;;
64684;SDS011;51109;47.414;18.954;2024-02-26T04:10:11;42.35;;;25.08;;
64684;SDS011;51109;47.414;18.954;2024-02-26T04:12:41;46.88;;;24.58;;
64684;SDS011;51109;47.414;18.954;2024-02-26T04:15:08;44.70;;;25.17;;
64684;SDS011;51109;47.414;18.954;2024-02-26T04:17:34;39.17;;;24.02;;
64684;SDS011;51109;47.414;18.954;2024-02-26T04:20:01;38.38;;;24.27;;
64684;SDS011;51109;47.414;18.954;2024-02-26T04:22:27;40.50;;;23.92;;
64684;SDS011;51109;47.414;18.954;2024-02-26T04:24:53;40.53;;;23.00;;
64684;SDS011;51109;47.414;18.954;2024-02-26T04:27:18;41.50;;;25.60;;
64684;SDS011;51109;47.414;18.954;2024-02-26T04:29:44;40.15;;;25.33;;
64684;SDS011;51109;47.414;18.954;2024-02-26T04:32:10;41.92;;;24.73;;
64684;SDS011;51109;47.414;18.954;2024-02-26T04:34:36;37.80;;;23.48;;
64684;SDS011;51109;47.414;18.954;2024-02-26T04:37:01;46.60;;;24.00;;
64684;SDS011;51109;47.414;18.954;2024-02-26T04:39:27;42.40;;;23.65;;
64684;SDS011;51109;47.414;18.954;2024-02-26T04:41:53;37.33;;;22.45;;
64684;SDS011;51109;47.414;18.954;2024-02-26T04:44:18;39.00;;;22.80;;
64684;SDS011;51109;47.414;18.954;2024-02-26T04:46:44;42.05;;;22.98;;
64684;SDS011;51109;47.414;18.954;2024-02-26T04:49:10;45.95;;;23.63;;
64684;SDS011;51109;47.414;18.954;2024-02-26T04:51:36;45.05;;;24.40;;
64684;SDS011;51109;47.414;18.954;2024-02-26T04:54:02;43.78;;;25.17;;
64684;SDS011;51109;47.414;18.954;2024-02-26T04:56:28;45.72;;;25.10;;
64684;SDS011;51109;47.414;18.954;2024-02-26T04:58:54;43.58;;;24.45;;
64684;SDS011;51109;47.414;18.954;2024-02-26T05:01:20;44.65;;;25.23;;
64684;SDS011;51109;47.414;18.954;2024-02-26T05:03:46;48.35;;;26.00;;
64684;SDS011;51109;47.414;18.954;2024-02-26T05:06:12;42.60;;;25.02;;
64684;SDS011;51109;47.414;18.954;2024-02-26T05:08:38;45.85;;;24.38;;
64684;SDS011;51109;47.414;18.954;2024-02-26T05:11:04;43.67;;;24.83;;
64684;SDS011;51109;47.414;18.954;2024-02-26T05:13:30;39.20;;;24.98;;
64684;SDS011;51109;47.414;18.954;2024-02-26T05:15:56;45.63;;;25.40;;
64684;SDS011;51109;47.414;18.954;2024-02-26T05:18:22;46.63;;;25.73;;
64684;SDS011;51109;47.414;18.954;2024-02-26T05:20:48;46.13;;;27.77;;
64684;SDS011;51109;47.414;18.954;2024-02-26T05:23:14;52.03;;;28.05;;
64684;SDS011;51109;47.414;18.954;2024-02-26T05:25:39;51.72;;;28.88;;
64684;SDS011;51109;47.414;18.954;2024-02-26T05:28:06;43.05;;;24.95;;
64684;SDS011;51109;47.414;18.954;2024-02-26T05:30:32;43.22;;;25.00;;
64684;SDS011;51109;47.414;18.954;2024-02-26T05:32:58;47.80;;;27.35;;
64684;SDS011;51109;47.414;18.954;2024-02-26T05:35:24;51.10;;;28.98;;
64684;SDS011;51109;47.414;18.954;2024-02-26T05:37:51;49.83;;;28.52;;
64684;SDS011;51109;47.414;18.954;2024-02-26T05:40:16;48.17;;;28.20;;
64684;SDS011;51109;47.414;18.954;2024-02-26T05:42:42;50.83;;;28.80;;
64684;SDS011;51109;47.414;18.954;2024-02-26T05:45:10;50.40;;;27.88;;
64684;SDS011;51109;47.414;18.954;2024-02-26T05:47:36;56.50;;;27.92;;
64684;SDS011;51109;47.414;18.954;2024-02-26T05:50:08;49.60;;;27.88;;
64684;SDS011;51109;47.414;18.954;2024-02-26T05:52:36;51.22;;;28.15;;
64684;SDS011;51109;47.414;18.954;2024-02-26T05:55:04;54.63;;;29.85;;
64684;SDS011;51109;47.414;18.954;2024-02-26T05:57:31;54.58;;;29.30;;
64684;SDS011;51109;47.414;18.954;2024-02-26T05:59:57;48.17;;;28.10;;
64684;SDS011;51109;47.414;18.954;2024-02-26T06:02:26;54.00;;;27.50;;
64684;SDS011;51109;47.414;18.954;2024-02-26T06:04:52;52.88;;;29.25;;
64684;SDS011;51109;47.414;18.954;2024-02-26T06:07:17;49.00;;;27.13;;
64684;SDS011;51109;47.414;18.954;2024-02-26T06:09:43;54.30;;;28.50;;
64684;SDS011;51109;47.414;18.954;2024-02-26T06:12:09;56.35;;;28.17;;
64684;SDS011;51109;47.414;18.954;2024-02-26T06:14:35;49.75;;;26.02;;
64684;SDS011;51109;47.414;18.954;2024-02-26T06:17:01;47.45;;;26.05;;
64684;SDS011;51109;47.414;18.954;2024-02-26T06:19:27;46.92;;;27.65;;
64684;SDS011;51109;47.414;18.954;2024-02-26T06:21:52;51.70;;;28.17;;
64684;SDS011;51109;47.414;18.954;2024-02-26T06:24:18;46.75;;;26.35;;
64684;SDS011;51109;47.414;18.954;2024-02-26T06:26:46;53.65;;;27.73;;
64684;SDS011;51109;47.414;18.954;2024-02-26T06:29:12;51.70;;;26.67;;
64684;SDS011;51109;47.414;18.954;2024-02-26T06:31:38;47.47;;;27.40;;
64684;SDS011;51109;47.414;18.954;2024-02-26T06:34:04;52.05;;;28.52;;
64684;SDS011;51109;47.414;18.954;2024-02-26T06:36:29;49.80;;;26.83;;
64684;SDS011;51109;47.414;18.954;2024-02-26T06:38:57;51.35;;;26.33;;
64684;SDS011;51109;47.414;18.954;2024-02-26T06:41:23;55.13;;;26.88;;
64684;SDS011;51109;47.414;18.954;2024-02-26T06:43:53;47.95;;;25.52;;
64684;SDS011;51109;47.414;18.954;2024-02-26T06:46:19;51.60;;;25.27;;
64684;SDS011;51109;47.414;18.954;2024-02-26T06:48:45;51.42;;;24.42;;
64684;SDS011;51109;47.414;18.954;2024-02-26T06:51:11;47.65;;;25.20;;
64684;SDS011;51109;47.414;18.954;2024-02-26T06:53:36;54.95;;;26.73;;
64684;SDS011;51109;47.414;18.954;2024-02-26T06:56:02;51.45;;;27.30;;
64684;SDS011;51109;47.414;18.954;2024-02-26T06:58:28;57.25;;;27.58;;
64684;SDS011;51109;47.414;18.954;2024-02-26T07:00:54;54.22;;;27.40;;
64684;SDS011;51109;47.414;18.954;2024-02-26T07:03:20;56.55;;;27.52;;
64684;SDS011;51109;47.414;18.954;2024-02-26T07:05:48;53.33;;;27.63;;
64684;SDS011;51109;47.414;18.954;2024-02-26T07:08:13;57.22;;;27.38;;
64684;SDS011;51109;47.414;18.954;2024-02-26T07:10:39;54.53;;;26.70;;
64684;SDS011;51109;47.414;18.954;2024-02-26T07:13:05;50.50;;;27.95;;
64684;SDS011;51109;47.414;18.954;2024-02-26T07:15:31;50.08;;;28.00;;
64684;SDS011;51109;47.414;18.954;2024-02-26T07:17:58;52.38;;;27.17;;
64684;SDS011;51109;47.414;18.954;2024-02-26T07:20:28;47.22;;;25.23;;
64684;SDS011;51109;47.414;18.954;2024-02-26T07:22:55;42.33;;;24.10;;
64684;SDS011;51109;47.414;18.954;2024-02-26T07:25:22;42.47;;;23.75;;
64684;SDS011;51109;47.414;18.954;2024-02-26T07:27:48;44.13;;;25.85;;
64684;SDS011;51109;47.414;18.954;2024-02-26T07:30:14;37.53;;;23.48;;
64684;SDS011;51109;47.414;18.954;2024-02-26T07:32:40;39.50;;;24.63;;
64684;SDS011;51109;47.414;18.954;2024-02-26T07:35:06;39.38;;;23.40;;
64684;SDS011;51109;47.414;18.954;2024-02-26T07:37:32;35.50;;;24.17;;
64684;SDS011;51109;47.414;18.954;2024-02-26T07:39:57;44.38;;;27.23;;
64684;SDS011;51109;47.414;18.954;2024-02-26T07:42:23;39.88;;;26.75;;
64684;SDS011;51109;47.414;18.954;2024-02-26T07:44:50;39.72;;;25.88;;
64684;SDS011;51109;47.414;18.954;2024-02-26T07:47:16;41.33;;;27.00;;
64684;SDS011;51109;47.414;18.954;2024-02-26T07:49:42;45.55;;;29.05;;
64684;SDS011;51109;47.414;18.954;2024-02-26T07:52:07;41.58;;;28.08;;
64684;SDS011;51109;47.414;18.954;2024-02-26T07:54:33;41.15;;;25.02;;
64684;SDS011;51109;47.414;18.954;2024-02-26T07:56:59;38.67;;;24.73;;
64684;SDS011;51109;47.414;18.954;2024-02-26T07:59:25;35.13;;;22.60;;
64684;SDS011;51109;47.414;18.954;2024-02-26T08:01:51;33.47;;;23.33;;
64684;SDS011;51109;47.414;18.954;2024-02-26T08:04:17;34.70;;;23.08;;
64684;SDS011;51109;47.414;18.954;2024-02-26T08:06:42;36.00;;;23.60;;
64684;SDS011;51109;47.414;18.954;2024-02-26T08:09:08;36.97;;;24.13;;
64684;SDS011;51109;47.414;18.954;2024-02-26T08:11:34;36.22;;;24.85;;
64684;SDS011;51109;47.414;18.954;2024-02-26T08:14:00;38.40;;;24.88;;
64684;SDS011;51109;47.414;18.954;2024-02-26T08:16:26;38.53;;;23.85;;
64684;SDS011;51109;47.414;18.954;2024-02-26T08:18:52;33.22;;;24.25;;
64684;SDS011;51109;47.414;18.954;2024-02-26T08:21:18;35.15;;;24.92;;
64684;SDS011;51109;47.414;18.954;2024-02-26T08:23:44;37.85;;;24.30;;
64684;SDS011;51109;47.414;18.954;2024-02-26T08:26:09;39.58;;;25.02;;
64684;SDS011;51109;47.414;18.954;2024-02-26T08:28:36;35.10;;;24.40;;
64684;SDS011;51109;47.414;18.954;2024-02-26T08:31:03;36.00;;;24.67;;
64684;SDS011;51109;47.414;18.954;2024-02-26T08:33:29;34.65;;;24.58;;
64684;SDS011;51109;47.414;18.954;2024-02-26T08:35:56;36.92;;;25.42;;
64684;SDS011;51109;47.414;18.954;2024-02-26T08:38:22;38.83;;;26.92;;
64684;SDS011;51109;47.414;18.954;2024-02-26T08:40:48;41.22;;;27.05;;
64684;SDS011;51109;47.414;18.954;2024-02-26T08:43:14;33.55;;;26.42;;
64684;SDS011;51109;47.414;18.954;2024-02-26T08:45:39;33.72;;;25.25;;
64684;SDS011;51109;47.414;18.954;2024-02-26T08:48:05;36.28;;;25.63;;
64684;SDS011;51109;47.414;18.954;2024-02-26T08:50:32;36.22;;;26.75;;
64684;SDS011;51109;47.414;18.954;2024-02-26T08:52:58;34.88;;;25.45;;
64684;SDS011;51109;47.414;18.954;2024-02-26T08:55:26;37.60;;;26.05;;
64684;SDS011;51109;47.414;18.954;2024-02-26T08:57:52;38.42;;;26.30;;
64684;SDS011;51109;47.414;18.954;2024-02-26T09:00:18;40.60;;;27.02;;
64684;SDS011;51109;47.414;18.954;2024-02-26T09:02:46;38.97;;;26.42;;
64684;SDS011;51109;47.414;18.954;2024-02-26T09:05:14;35.50;;;25.33;;
64684;SDS011;51109;47.414;18.954;2024-02-26T09:07:39;37.58;;;25.30;;
64684;SDS011;51109;47.414;18.954;2024-02-26T09:10:05;38.25;;;26.27;;
64684;SDS011;51109;47.414;18.954;2024-02-26T09:12:34;37.78;;;26.30;;
64684;SDS011;51109;47.414;18.954;2024-02-26T09:15:00;38.63;;;26.58;;
64684;SDS011;51109;47.414;18.954;2024-02-26T09:17:26;41.35;;;28.13;;
64684;SDS011;51109;47.414;18.954;2024-02-26T09:19:51;39.92;;;28.33;;
64684;SDS011;51109;47.414;18.954;2024-02-26T09:22:17;37.83;;;26.85;;
64684;SDS011;51109;47.414;18.954;2024-02-26T09:24:43;37.65;;;26.08;;
64684;SDS011;51109;47.414;18.954;2024-02-26T09:27:09;37.15;;;26.08;;
64684;SDS011;51109;47.414;18.954;2024-02-26T09:29:35;39.65;;;27.92;;
64684;SDS011;51109;47.414;18.954;2024-02-26T09:32:01;39.05;;;27.80;;
64684;SDS011;51109;47.414;18.954;2024-02-26T09:34:27;37.53;;;27.77;;
64684;SDS011;51109;47.414;18.954;2024-02-26T09:36:53;39.40;;;27.10;;
64684;SDS011;51109;47.414;18.954;2024-02-26T09:39:19;44.47;;;29.70;;
64684;SDS011;51109;47.414;18.954;2024-02-26T09:41:49;39.05;;;26.70;;
64684;SDS011;51109;47.414;18.954;2024-02-26T09:44:17;35.25;;;25.00;;
64684;SDS011;51109;47.414;18.954;2024-02-26T09:46:47;31.75;;;23.75;;
64684;SDS011;51109;47.414;18.954;2024-02-26T09:49:16;35.58;;;26.55;;
64684;SDS011;51109;47.414;18.954;2024-02-26T09:51:43;35.78;;;26.17;;
64684;SDS011;51109;47.414;18.954;2024-02-26T09:54:09;37.22;;;25.80;;
64684;SDS011;51109;47.414;18.954;2024-02-26T09:56:39;34.08;;;25.67;;
64684;SDS011;51109;47.414;18.954;2024-02-26T09:59:06;34.67;;;26.27;;
64684;SDS011;51109;47.414;18.954;2024-02-26T10:01:38;35.35;;;25.50;;
64684;SDS011;51109;47.414;18.954;2024-02-26T10:04:07;42.67;;;29.25;;
64684;SDS011;51109;47.414;18.954;2024-02-26T10:06:34;38.47;;;26.95;;
64684;SDS011;51109;47.414;18.954;2024-02-26T10:09:01;33.78;;;25.80;;
64684;SDS011;51109;47.414;18.954;2024-02-26T10:11:31;36.03;;;27.23;;
64684;SDS011;51109;47.414;18.954;2024-02-26T10:13:58;34.10;;;23.75;;
64684;SDS011;51109;47.414;18.954;2024-02-26T10:16:26;32.20;;;21.65;;
64684;SDS011;51109;47.414;18.954;2024-02-26T10:18:53;34.42;;;23.73;;
64684;SDS011;51109;47.414;18.954;2024-02-26T10:21:20;33.38;;;24.80;;
64684;SDS011;51109;47.414;18.954;2024-02-26T10:23:46;35.65;;;25.30;;
64684;SDS011;51109;47.414;18.954;2024-02-26T10:26:13;31.98;;;24.55;;
64684;SDS011;51109;47.414;18.954;2024-02-26T10:28:41;39.90;;;26.73;;
64684;SDS011;51109;47.414;18.954;2024-02-26T10:31:07;31.70;;;24.95;;
64684;SDS011;51109;47.414;18.954;2024-02-26T10:33:35;31.13;;;22.40;;
64684;SDS011;51109;47.414;18.954;2024-02-26T10:36:04;33.05;;;23.33;;
64684;SDS011;51109;47.414;18.954;2024-02-26T10:38:32;28.67;;;20.40;;
64684;SDS011;51109;47.414;18.954;2024-02-26T10:40:58;27.83;;;20.20;;
64684;SDS011;51109;47.414;18.954;2024-02-26T10:43:27;29.85;;;20.48;;
64684;SDS011;51109;47.414;18.954;2024-02-26T10:45:56;29.38;;;20.05;;
64684;SDS011;51109;47.414;18.954;2024-02-26T10:48:22;31.02;;;21.67;;
64684;SDS011;51109;47.414;18.954;2024-02-26T10:50:49;31.33;;;22.95;;
64684;SDS011;51109;47.414;18.954;2024-02-26T10:53:22;30.77;;;21.15;;
64684;SDS011;51109;47.414;18.954;2024-02-26T10:55:57;27.80;;;21.38;;
64684;SDS011;51109;47.414;18.954;2024-02-26T10:58:26;33.97;;;21.55;;
64684;SDS011;51109;47.414;18.954;2024-02-26T11:00:53;31.50;;;21.92;;
64684;SDS011;51109;47.414;18.954;2024-02-26T11:03:21;28.25;;;20.20;;
64684;SDS011;51109;47.414;18.954;2024-02-26T11:05:48;29.60;;;21.58;;
64684;SDS011;51109;47.414;18.954;2024-02-26T11:08:15;26.40;;;19.38;;
64684;SDS011;51109;47.414;18.954;2024-02-26T11:10:47;27.08;;;19.88;;
64684;SDS011;51109;47.414;18.954;2024-02-26T11:13:14;26.48;;;19.13;;
64684;SDS011;51109;47.414;18.954;2024-02-26T11:15:42;23.70;;;16.35;;
64684;SDS011;51109;47.414;18.954;2024-02-26T11:18:09;22.15;;;16.73;;
64684;SDS011;51109;47.414;18.954;2024-02-26T11:20:38;26.38;;;17.52;;
64684;SDS011;51109;47.414;18.954;2024-02-26T11:23:05;20.10;;;15.07;;
64684;SDS011;51109;47.414;18.954;2024-02-26T11:25:32;20.30;;;15.90;;
64684;SDS011;51109;47.414;18.954;2024-02-26T11:28:00;19.42;;;14.50;;
64684;SDS011;51109;47.414;18.954;2024-02-26T11:30:29;22.30;;;16.17;;
64684;SDS011;51109;47.414;18.954;2024-02-26T11:32:58;23.67;;;15.93;;
64684;SDS011;51109;47.414;18.954;2024-02-26T11:35:25;18.50;;;14.30;;
64684;SDS011;51109;47.414;18.954;2024-02-26T11:37:54;18.95;;;14.65;;
64684;SDS011;51109;47.414;18.954;2024-02-26T11:40:24;20.15;;;14.23;;
64684;SDS011;51109;47.414;18.954;2024-02-26T11:42:51;18.38;;;14.27;;
64684;SDS011;51109;47.414;18.954;2024-02-26T11:48:19;21.30;;;12.80;;
64684;SDS011;51109;47.414;18.954;2024-02-26T11:50:53;15.73;;;12.10;;
64684;SDS011;51109;47.414;18.954;2024-02-26T11:53:21;17.38;;;12.25;;
64684;SDS011;51109;47.414;18.954;2024-02-26T11:59:00;17.80;;;12.27;;
64684;SDS011;51109;47.414;18.954;2024-02-26T12:04:11;17.27;;;13.30;;
64684;SDS011;51109;47.414;18.954;2024-02-26T12:06:52;16.70;;;13.32;;
64684;SDS011;51109;47.414;18.954;2024-02-26T12:09:38;18.83;;;12.38;;
64684;SDS011;51109;47.414;18.954;2024-02-26T12:12:09;18.23;;;13.80;;
64684;SDS011;51109;47.414;18.954;2024-02-26T12:17:19;17.50;;;13.82;;
64684;SDS011;51109;47.414;18.954;2024-02-26T12:19:45;20.70;;;14.27;;
64684;SDS011;51109;47.414;18.954;2024-02-26T12:22:12;17.58;;;12.80;;
64684;SDS011;51109;47.414;18.954;2024-02-26T12:24:39;12.88;;;10.95;;
64684;SDS011;51109;47.414;18.954;2024-02-26T12:27:05;13.07;;;11.68;;
64684;SDS011;51109;47.414;18.954;2024-02-26T12:29:31;13.52;;;11.27;;
64684;SDS011;51109;47.414;18.954;2024-02-26T12:31:57;14.15;;;11.57;;
64684;SDS011;51109;47.414;18.954;2024-02-26T12:34:23;12.00;;;10.85;;
64684;SDS011;51109;47.414;18.954;2024-02-26T12:36:50;12.93;;;10.77;;
64684;SDS011;51109;47.414;18.954;2024-02-26T12:39:16;13.40;;;10.55;;
64684;SDS011;51109;47.414;18.954;2024-02-26T12:41:42;13.35;;;10.82;;
64684;SDS011;51109;47.414;18.954;2024-02-26T12:44:17;12.90;;;10.65;;
64684;SDS011;51109;47.414;18.954;2024-02-26T12:46:44;14.38;;;11.52;;
64684;SDS011;51109;47.414;18.954;2024-02-26T12:49:14;13.85;;;9.50;;
64684;SDS011;51109;47.414;18.954;2024-02-26T12:51:43;11.10;;;9.52;;
64684;SDS011;51109;47.414;18.954;2024-02-26T12:54:10;12.55;;;8.57;;
64684;SDS011;51109;47.414;18.954;2024-02-26T12:56:36;10.95;;;8.90;;
64684;SDS011;51109;47.414;18.954;2024-02-26T12:59:02;9.70;;;8.45;;
64684;SDS011;51109;47.414;18.954;2024-02-26T13:01:28;11.85;;;10.20;;
64684;SDS011;51109;47.414;18.954;2024-02-26T13:03:55;13.25;;;11.85;;
64684;SDS011;51109;47.414;18.954;2024-02-26T13:06:22;11.77;;;10.52;;
64684;SDS011;51109;47.414;18.954;2024-02-26T13:08:48;12.27;;;9.77;;
64684;SDS011;51109;47.414;18.954;2024-02-26T13:11:14;11.07;;;8.98;;
64684;SDS011;51109;47.414;18.954;2024-02-26T13:13:41;12.52;;;9.25;;
64684;SDS011;51109;47.414;18.954;2024-02-26T13:16:08;12.80;;;8.88;;
64684;SDS011;51109;47.414;18.954;2024-02-26T13:18:35;11.77;;;10.48;;
64684;SDS011;51109;47.414;18.954;2024-02-26T13:21:11;11.25;;;8.40;;
64684;SDS011;51109;47.414;18.954;2024-02-26T13:23:39;11.02;;;9.30;;
64684;SDS011;51109;47.414;18.954;2024-02-26T13:26:05;12.02;;;8.38;;
64684;SDS011;51109;47.414;18.954;2024-02-26T13:28:33;8.23;;;7.43;;
64684;SDS011;51109;47.414;18.954;2024-02-26T13:30:59;8.02;;;4.80;;
64684;SDS011;51109;47.414;18.954;2024-02-26T13:33:26;10.57;;;7.53;;
64684;SDS011;51109;47.414;18.954;2024-02-26T13:35:54;6.88;;;5.15;;
64684;SDS011;51109;47.414;18.954;2024-02-26T13:38:20;4.10;;;3.50;;
64684;SDS011;51109;47.414;18.954;2024-02-26T13:40:47;3.28;;;1.90;;
64684;SDS011;51109;47.414;18.954;2024-02-26T13:43:13;5.80;;;2.38;;
64684;SDS011;51109;47.414;18.954;2024-02-26T13:45:39;3.80;;;2.38;;
64684;SDS011;51109;47.414;18.954;2024-02-26T13:48:06;2.25;;;2.05;;
64684;SDS011;51109;47.414;18.954;2024-02-26T13:50:35;3.83;;;2.00;;
64684;SDS011;51109;47.414;18.954;2024-02-26T13:53:01;4.43;;;2.63;;
64684;SDS011;51109;47.414;18.954;2024-02-26T13:55:28;2.97;;;2.63;;
64684;SDS011;51109;47.414;18.954;2024-02-26T13:57:56;3.58;;;2.90;;
64684;SDS011;51109;47.414;18.954;2024-02-26T14:00:22;5.47;;;3.05;;
64684;SDS011;51109;47.414;18.954;2024-02-26T14:02:49;5.05;;;2.90;;
64684;SDS011;51109;47.414;18.954;2024-02-26T14:05:15;5.30;;;3.42;;
64684;SDS011;51109;47.414;18.954;2024-02-26T14:07:42;4.35;;;3.03;;
64684;SDS011;51109;47.414;18.954;2024-02-26T14:10:08;4.68;;;3.60;;
64684;SDS011;51109;47.414;18.954;2024-02-26T14:12:37;4.13;;;3.60;;
64684;SDS011;51109;47.414;18.954;2024-02-26T14:15:04;7.10;;;4.38;;
64684;SDS011;51109;47.414;18.954;2024-02-26T14:17:33;11.82;;;9.82;;
64684;SDS011;51109;47.414;18.954;2024-02-26T14:19:59;18.63;;;14.10;;